createdAt,value
2018-09-04T00:00:55.663Z,0.00
2018-09-04T00:01:55.678Z,0.00
2018-09-04T00:02:55.694Z,0.00
2018-09-04T00:03:55.710Z,0.00
2018-09-04T00:04:55.727Z,0.00
2018-09-04T00:05:55.747Z,0.00
2018-09-04T00:06:55.760Z,0.00
2018-09-04T00:07:55.777Z,0.00
2018-09-04T00:08:55.795Z,0.00
2018-09-04T00:09:55.805Z,0.00
2018-09-04T00:10:55.821Z,0.00
2018-09-04T00:11:55.837Z,0.00
2018-09-04T00:12:55.853Z,0.00
2018-09-04T00:13:55.870Z,0.00
2018-09-04T00:14:55.884Z,0.00
2018-09-04T00:15:55.902Z,0.00
2018-09-04T00:16:55.917Z,0.00
2018-09-04T00:17:55.935Z,0.00
2018-09-04T00:18:55.952Z,0.00
2018-09-04T00:19:55.967Z,0.00
2018-09-04T00:20:55.988Z,0.00
2018-09-04T00:21:55.998Z,0.00
2018-09-04T00:22:56.011Z,0.00
2018-09-04T00:23:56.028Z,0.00
2018-09-04T00:24:56.045Z,0.00
2018-09-04T00:25:56.059Z,0.00
2018-09-04T00:26:56.078Z,0.00
2018-09-04T00:27:56.091Z,0.00
2018-09-04T00:28:56.111Z,0.00
2018-09-04T00:29:56.123Z,0.00
2018-09-04T00:30:56.139Z,0.00
2018-09-04T00:31:56.154Z,0.00
2018-09-04T00:32:56.171Z,0.00
2018-09-04T00:33:56.200Z,0.00
2018-09-04T00:34:56.204Z,0.00
2018-09-04T00:35:56.218Z,0.00
2018-09-04T00:36:56.234Z,0.00
2018-09-04T00:37:56.250Z,0.00
2018-09-04T00:38:56.265Z,0.00
2018-09-04T00:39:56.280Z,0.00
2018-09-04T00:40:56.297Z,0.00
2018-09-04T00:41:56.312Z,0.00
2018-09-04T00:42:56.328Z,0.00
2018-09-04T00:43:56.344Z,0.00
2018-09-04T00:44:56.364Z,0.00
2018-09-04T00:45:56.377Z,0.00
2018-09-04T00:46:56.392Z,0.00
2018-09-04T00:47:56.408Z,0.00
2018-09-04T00:48:56.422Z,0.00
2018-09-04T00:49:56.437Z,0.00
2018-09-04T00:50:56.455Z,0.00
2018-09-04T00:51:56.469Z,0.00
2018-09-04T00:52:56.485Z,0.00
2018-09-04T00:53:56.501Z,0.00
2018-09-04T00:54:56.520Z,0.00
2018-09-04T00:55:56.532Z,0.00
2018-09-04T00:56:56.548Z,0.00
2018-09-04T00:57:56.568Z,0.00
2018-09-04T00:58:56.664Z,0.00
2018-09-04T00:59:56.593Z,0.00
2018-09-04T01:00:56.610Z,0.00
2018-09-04T01:01:56.627Z,0.00
2018-09-04T01:02:56.641Z,0.00
2018-09-04T01:03:56.659Z,0.00
2018-09-04T01:04:56.673Z,0.00
2018-09-04T01:05:56.688Z,0.00
2018-09-04T01:06:56.701Z,0.00
2018-09-04T01:07:56.717Z,0.00
2018-09-04T01:08:56.733Z,0.00
2018-09-04T01:09:56.746Z,0.00
2018-09-04T01:10:56.762Z,0.00
2018-09-04T01:11:56.780Z,0.00
2018-09-04T01:12:56.795Z,0.00
2018-09-04T01:13:56.808Z,0.00
2018-09-04T01:14:56.824Z,0.00
2018-09-04T01:15:56.840Z,0.00
2018-09-04T01:16:56.856Z,0.00
2018-09-04T01:17:56.869Z,0.00
2018-09-04T01:18:56.885Z,0.00
2018-09-04T01:19:56.903Z,0.00
2018-09-04T01:20:56.916Z,0.00
2018-09-04T01:21:56.932Z,0.00
2018-09-04T01:22:56.947Z,0.00
2018-09-04T01:23:56.962Z,0.00
2018-09-04T01:24:56.976Z,0.00
2018-09-04T01:25:56.992Z,0.00
2018-09-04T01:26:57.006Z,0.00
2018-09-04T01:27:57.023Z,0.00
2018-09-04T01:28:57.037Z,0.00
2018-09-04T01:29:57.050Z,0.00
2018-09-04T01:30:57.068Z,0.00
2018-09-04T01:31:57.081Z,0.00
2018-09-04T01:32:57.102Z,0.00
2018-09-04T01:33:57.114Z,0.00
2018-09-04T01:34:57.128Z,0.00
2018-09-04T01:35:57.145Z,0.00
2018-09-04T01:36:57.158Z,0.00
2018-09-04T01:37:57.171Z,0.00
2018-09-04T01:38:57.186Z,0.00
2018-09-04T01:39:57.203Z,0.00
2018-09-04T01:40:57.219Z,0.00
2018-09-04T01:41:57.232Z,0.00
2018-09-04T01:42:57.247Z,0.00
2018-09-04T01:43:57.263Z,0.00
2018-09-04T01:44:57.279Z,0.00
2018-09-04T01:45:57.291Z,0.00
2018-09-04T01:46:57.309Z,0.00
2018-09-04T01:47:57.321Z,0.00
2018-09-04T01:48:57.334Z,0.00
2018-09-04T01:49:57.355Z,0.00
2018-09-04T01:50:57.411Z,0.00
2018-09-04T01:51:57.380Z,0.00
2018-09-04T01:52:57.394Z,0.00
2018-09-04T01:53:57.409Z,0.00
2018-09-04T01:54:57.425Z,0.00
2018-09-04T01:55:57.440Z,0.00
2018-09-04T01:56:57.454Z,0.00
2018-09-04T01:57:57.467Z,0.00
2018-09-04T01:58:57.487Z,0.00
2018-09-04T01:59:57.500Z,0.00
2018-09-04T02:00:57.517Z,0.00
2018-09-04T02:01:57.530Z,0.00
2018-09-04T02:02:57.543Z,0.00
2018-09-04T02:03:57.557Z,0.00
2018-09-04T02:04:57.574Z,0.00
2018-09-04T02:05:57.590Z,0.00
2018-09-04T02:06:57.603Z,0.00
2018-09-04T02:07:57.620Z,0.00
2018-09-04T02:08:57.634Z,0.00
2018-09-04T02:09:57.648Z,0.00
2018-09-04T02:10:57.662Z,0.00
2018-09-04T02:11:57.678Z,0.00
2018-09-04T02:12:57.694Z,0.00
2018-09-04T02:13:57.708Z,0.00
2018-09-04T02:14:57.723Z,0.00
2018-09-04T02:15:57.738Z,0.00
2018-09-04T02:16:57.786Z,0.00
2018-09-04T02:17:57.766Z,0.00
2018-09-04T02:18:57.783Z,0.00
2018-09-04T02:19:57.799Z,0.00
2018-09-04T02:20:57.813Z,0.00
2018-09-04T02:21:57.827Z,0.00
2018-09-04T02:22:57.844Z,0.00
2018-09-04T02:23:57.862Z,0.00
2018-09-04T02:24:57.873Z,0.00
2018-09-04T02:25:57.886Z,0.00
2018-09-04T02:26:57.901Z,0.00
2018-09-04T02:27:57.917Z,0.00
2018-09-04T02:28:57.931Z,0.00
2018-09-04T02:29:57.945Z,0.00
2018-09-04T02:30:57.962Z,0.00
2018-09-04T02:31:57.978Z,0.00
2018-09-04T02:32:58.025Z,0.00
2018-09-04T02:33:58.014Z,0.00
2018-09-04T02:34:58.092Z,0.00
2018-09-04T02:35:58.038Z,0.00
2018-09-04T02:36:58.053Z,0.00
2018-09-04T02:37:58.066Z,0.00
2018-09-04T02:38:58.081Z,0.00
2018-09-04T02:39:58.096Z,0.00
2018-09-04T02:40:58.113Z,0.00
2018-09-04T02:41:58.129Z,0.00
2018-09-04T02:42:58.141Z,0.00
2018-09-04T02:43:58.162Z,0.00
2018-09-04T02:44:58.176Z,0.00
2018-09-04T02:45:58.196Z,0.00
2018-09-04T02:46:58.202Z,0.00
2018-09-04T02:47:58.216Z,0.00
2018-09-04T02:48:58.233Z,0.00
2018-09-04T02:49:58.247Z,0.00
2018-09-04T02:50:58.261Z,0.00
2018-09-04T02:51:58.279Z,0.00
2018-09-04T02:52:58.293Z,0.00
2018-09-04T02:53:58.308Z,0.00
2018-09-04T02:54:58.322Z,0.00
2018-09-04T02:55:58.338Z,0.00
2018-09-04T02:56:58.356Z,0.00
2018-09-04T02:57:58.366Z,0.00
2018-09-04T02:58:58.381Z,0.00
2018-09-04T02:59:58.396Z,0.00
2018-09-04T03:00:58.414Z,0.00
2018-09-04T03:01:58.426Z,0.00
2018-09-04T03:02:58.440Z,0.00
2018-09-04T03:03:58.456Z,0.00
2018-09-04T03:04:58.474Z,0.00
2018-09-04T03:05:58.485Z,0.00
2018-09-04T03:06:58.501Z,0.00
2018-09-04T03:07:58.517Z,0.00
2018-09-04T03:08:58.533Z,0.00
2018-09-04T03:09:58.545Z,0.00
2018-09-04T03:10:58.611Z,0.00
2018-09-04T03:11:58.576Z,0.00
2018-09-04T03:12:58.591Z,0.00
2018-09-04T03:13:58.676Z,0.00
2018-09-04T03:14:58.627Z,0.00
2018-09-04T03:15:58.634Z,0.00
2018-09-04T03:16:58.651Z,0.00
2018-09-04T03:17:58.667Z,0.00
2018-09-04T03:18:58.678Z,0.00
2018-09-04T03:19:58.695Z,0.00
2018-09-04T03:20:58.709Z,0.00
2018-09-04T03:21:58.726Z,0.00
2018-09-04T03:22:58.767Z,0.00
2018-09-04T03:23:58.754Z,0.00
2018-09-04T03:24:58.778Z,0.00
2018-09-04T03:25:58.783Z,0.00
2018-09-04T03:26:58.799Z,0.00
2018-09-04T03:27:58.811Z,0.00
2018-09-04T03:28:58.830Z,0.00
2018-09-04T03:29:58.841Z,0.00
2018-09-04T03:30:58.858Z,0.00
2018-09-04T03:31:58.873Z,0.00
2018-09-04T03:32:58.886Z,0.00
2018-09-04T03:33:58.901Z,0.00
2018-09-04T03:34:58.916Z,0.00
2018-09-04T03:35:58.930Z,0.00
2018-09-04T03:36:58.951Z,0.00
2018-09-04T03:37:58.961Z,0.00
2018-09-04T03:38:58.976Z,0.00
2018-09-04T03:39:58.993Z,0.00
2018-09-04T03:40:59.007Z,0.00
2018-09-04T03:41:59.024Z,0.00
2018-09-04T03:42:59.035Z,0.00
2018-09-04T03:43:59.051Z,0.00
2018-09-04T03:44:59.065Z,0.00
2018-09-04T03:45:59.080Z,0.00
2018-09-04T03:46:59.097Z,0.00
2018-09-04T03:47:59.113Z,0.00
2018-09-04T03:48:59.127Z,0.00
2018-09-04T03:49:59.139Z,0.00
2018-09-04T03:50:59.157Z,0.00
2018-09-04T03:51:59.172Z,0.00
2018-09-04T03:52:59.185Z,0.00
2018-09-04T03:53:59.201Z,0.00
2018-09-04T03:54:59.215Z,0.00
2018-09-04T03:55:59.229Z,0.00
2018-09-04T03:56:59.245Z,0.00
2018-09-04T03:57:59.258Z,0.00
2018-09-04T03:58:59.275Z,0.00
2018-09-04T03:59:59.298Z,0.00
2018-09-04T04:00:59.305Z,0.00
2018-09-04T04:01:59.317Z,0.00
2018-09-04T04:02:59.332Z,0.00
2018-09-04T04:03:59.349Z,0.00
2018-09-04T04:04:59.364Z,0.00
2018-09-04T04:05:59.380Z,0.00
2018-09-04T04:06:59.395Z,0.00
2018-09-04T04:07:59.407Z,0.00
2018-09-04T04:08:59.424Z,0.00
2018-09-04T04:09:59.439Z,0.00
2018-09-04T04:10:59.456Z,0.00
2018-09-04T04:11:59.543Z,0.00
2018-09-04T04:12:59.482Z,0.00
2018-09-04T04:13:59.497Z,0.00
2018-09-04T04:14:59.511Z,0.00
2018-09-04T04:15:59.529Z,0.00
2018-09-04T04:16:59.540Z,0.00
2018-09-04T04:17:59.558Z,0.00
2018-09-04T04:18:59.572Z,0.00
2018-09-04T04:19:59.585Z,0.00
2018-09-04T04:20:59.601Z,0.00
2018-09-04T04:21:59.617Z,0.00
2018-09-04T04:22:59.629Z,0.00
2018-09-04T04:23:59.699Z,0.00
2018-09-04T04:24:59.659Z,0.00
2018-09-04T04:25:59.674Z,0.00
2018-09-04T04:26:59.692Z,0.00
2018-09-04T04:27:59.704Z,0.00
2018-09-04T04:28:59.720Z,0.00
2018-09-04T04:29:59.733Z,0.00
2018-09-04T04:30:59.753Z,0.00
2018-09-04T04:31:59.763Z,0.00
2018-09-04T04:32:59.809Z,0.00
2018-09-04T04:33:59.795Z,0.00
2018-09-04T04:34:59.807Z,0.00
2018-09-04T04:35:59.823Z,0.00
2018-09-04T04:36:59.846Z,0.00
2018-09-04T04:37:59.853Z,0.00
2018-09-04T04:38:59.868Z,0.00
2018-09-04T04:39:59.912Z,0.00
2018-09-04T04:40:59.899Z,0.00
2018-09-04T04:41:59.909Z,0.00
2018-09-04T04:42:59.926Z,0.00
2018-09-04T04:43:59.942Z,4.00
2018-09-04T04:44:59.956Z,0.00
2018-09-04T04:45:59.973Z,0.00
2018-09-04T04:46:59.987Z,4.00
2018-09-04T04:48:00.056Z,4.00
2018-09-04T04:49:00.014Z,4.00
2018-09-04T04:50:00.029Z,4.00
2018-09-04T04:51:00.043Z,4.00
2018-09-04T04:52:00.061Z,4.00
2018-09-04T04:53:00.076Z,8.00
2018-09-04T04:54:00.089Z,4.00
2018-09-04T04:55:00.108Z,8.00
2018-09-04T04:56:00.119Z,8.00
2018-09-04T04:57:00.136Z,8.00
2018-09-04T04:58:00.150Z,8.00
2018-09-04T04:59:00.166Z,8.00
2018-09-04T05:00:00.179Z,12.00
2018-09-04T05:01:00.193Z,12.00
2018-09-04T05:02:00.206Z,12.00
2018-09-04T05:03:00.220Z,16.00
2018-09-04T05:04:00.239Z,16.00
2018-09-04T05:05:00.249Z,16.00
2018-09-04T05:06:00.267Z,16.00
2018-09-04T05:07:00.278Z,16.00
2018-09-04T05:08:00.295Z,16.00
2018-09-04T05:09:00.311Z,16.00
2018-09-04T05:10:00.323Z,16.00
2018-09-04T05:11:00.407Z,16.00
2018-09-04T05:12:00.357Z,20.00
2018-09-04T05:13:00.366Z,20.00
2018-09-04T05:14:00.384Z,20.00
2018-09-04T05:15:00.395Z,20.00
2018-09-04T05:16:00.410Z,20.00
2018-09-04T05:17:00.426Z,24.00
2018-09-04T05:18:00.439Z,24.00
2018-09-04T05:19:00.458Z,24.00
2018-09-04T05:20:00.469Z,24.00
2018-09-04T05:21:00.484Z,24.00
2018-09-04T05:22:00.497Z,24.00
2018-09-04T05:23:00.515Z,24.00
2018-09-04T05:24:00.527Z,28.00
2018-09-04T05:25:00.541Z,32.00
2018-09-04T05:26:00.555Z,32.00
2018-09-04T05:27:00.570Z,32.00
2018-09-04T05:28:00.586Z,32.00
2018-09-04T05:29:00.600Z,32.00
2018-09-04T05:30:00.616Z,32.00
2018-09-04T05:31:00.631Z,32.00
2018-09-04T05:32:00.642Z,32.00
2018-09-04T05:33:00.657Z,32.00
2018-09-04T05:34:00.670Z,32.00
2018-09-04T05:35:00.687Z,32.00
2018-09-04T05:36:00.700Z,36.00
2018-09-04T05:37:00.717Z,40.00
2018-09-04T05:38:00.736Z,40.00
2018-09-04T05:39:00.743Z,40.00
2018-09-04T05:40:00.758Z,40.00
2018-09-04T05:41:00.773Z,40.00
2018-09-04T05:42:00.786Z,40.00
2018-09-04T05:43:00.803Z,40.00
2018-09-04T05:44:00.815Z,40.00
2018-09-04T05:45:00.835Z,40.00
2018-09-04T05:46:00.846Z,40.00
2018-09-04T05:47:00.857Z,40.00
2018-09-04T05:48:00.875Z,40.00
2018-09-04T05:49:00.888Z,40.00
2018-09-04T05:50:00.903Z,40.00
2018-09-04T05:51:00.917Z,40.00
2018-09-04T05:52:00.932Z,40.00
2018-09-04T05:53:00.949Z,44.00
2018-09-04T05:54:00.961Z,48.00
2018-09-04T05:55:01.017Z,48.00
2018-09-04T05:56:00.991Z,48.00
2018-09-04T05:57:01.005Z,48.00
2018-09-04T05:58:01.019Z,48.00
2018-09-04T05:59:01.033Z,48.00
2018-09-04T06:00:01.053Z,48.00
2018-09-04T06:01:01.062Z,48.00
2018-09-04T06:02:01.079Z,48.00
2018-09-04T06:03:01.091Z,48.00
2018-09-04T06:04:01.105Z,48.00
2018-09-04T06:05:01.122Z,48.00
2018-09-04T06:06:01.134Z,48.00
2018-09-04T06:07:01.151Z,48.00
2018-09-04T06:08:01.163Z,48.00
2018-09-04T06:09:01.179Z,52.00
2018-09-04T06:10:01.197Z,52.00
2018-09-04T06:11:01.209Z,52.00
2018-09-04T06:12:01.219Z,52.00
2018-09-04T06:13:01.292Z,52.00
2018-09-04T06:14:01.251Z,52.00
2018-09-04T06:15:01.265Z,52.00
2018-09-04T06:16:01.280Z,52.00
2018-09-04T06:17:01.295Z,52.00
2018-09-04T06:18:01.308Z,56.00
2018-09-04T06:19:01.324Z,68.00
2018-09-04T06:20:01.430Z,84.00
2018-09-04T06:21:01.353Z,88.00
2018-09-04T06:22:01.371Z,88.00
2018-09-04T06:23:01.384Z,92.00
2018-09-04T06:24:01.400Z,88.00
2018-09-04T06:25:01.414Z,92.00
2018-09-04T06:26:01.424Z,92.00
2018-09-04T06:27:01.442Z,92.00
2018-09-04T06:28:01.457Z,92.00
2018-09-04T06:29:01.470Z,96.00
2018-09-04T06:30:01.489Z,96.00
2018-09-04T06:31:01.501Z,96.00
2018-09-04T06:32:01.517Z,100.00
2018-09-04T06:33:01.530Z,100.00
2018-09-04T06:34:01.613Z,100.00
2018-09-04T06:35:01.614Z,100.00
2018-09-04T06:36:01.573Z,104.00
2018-09-04T06:37:01.590Z,100.00
2018-09-04T06:38:01.603Z,104.00
2018-09-04T06:39:01.624Z,104.00
2018-09-04T06:40:01.631Z,108.00
2018-09-04T06:41:01.646Z,104.00
2018-09-04T06:42:01.660Z,108.00
2018-09-04T06:43:01.675Z,108.00
2018-09-04T06:44:01.691Z,108.00
2018-09-04T06:45:01.733Z,108.00
2018-09-04T06:46:01.721Z,112.00
2018-09-04T06:47:01.735Z,112.00
2018-09-04T06:48:01.751Z,116.00
2018-09-04T06:49:01.765Z,116.00
2018-09-04T06:50:01.781Z,116.00
2018-09-04T06:51:01.793Z,112.00
2018-09-04T06:52:01.809Z,116.00
2018-09-04T06:53:01.824Z,116.00
2018-09-04T06:54:01.842Z,116.00
2018-09-04T06:55:01.853Z,120.00
2018-09-04T06:56:01.868Z,120.00
2018-09-04T06:57:01.886Z,120.00
2018-09-04T06:58:01.899Z,124.00
2018-09-04T06:59:01.913Z,124.00
2018-09-04T07:00:01.934Z,124.00
2018-09-04T07:01:01.943Z,124.00
2018-09-04T07:02:01.958Z,128.00
2018-09-04T07:03:01.973Z,128.00
2018-09-04T07:04:01.989Z,128.00
2018-09-04T07:05:02.003Z,128.00
2018-09-04T07:06:02.075Z,132.00
2018-09-04T07:07:02.035Z,132.00
2018-09-04T07:08:02.047Z,132.00
2018-09-04T07:09:02.064Z,136.00
2018-09-04T07:10:02.076Z,136.00
2018-09-04T07:11:02.093Z,140.00
2018-09-04T07:12:02.111Z,136.00
2018-09-04T07:13:02.126Z,140.00
2018-09-04T07:14:02.141Z,140.00
2018-09-04T07:15:02.173Z,144.00
2018-09-04T07:16:02.169Z,144.00
2018-09-04T07:17:02.196Z,148.00
2018-09-04T07:18:02.197Z,144.00
2018-09-04T07:19:02.217Z,148.00
2018-09-04T07:20:02.227Z,148.00
2018-09-04T07:21:02.248Z,152.00
2018-09-04T07:22:02.259Z,152.00
2018-09-04T07:23:02.274Z,156.00
2018-09-04T07:24:02.368Z,160.00
2018-09-04T07:25:02.306Z,160.00
2018-09-04T07:26:02.319Z,160.00
2018-09-04T07:27:02.338Z,160.00
2018-09-04T07:28:02.350Z,164.00
2018-09-04T07:29:02.365Z,164.00
2018-09-04T07:30:02.380Z,168.00
2018-09-04T07:31:02.402Z,172.00
2018-09-04T07:32:02.410Z,168.00
2018-09-04T07:33:02.426Z,172.00
2018-09-04T07:34:02.445Z,176.00
2018-09-04T07:35:02.454Z,176.00
2018-09-04T07:36:02.471Z,180.00
2018-09-04T07:37:02.487Z,180.00
2018-09-04T07:38:02.501Z,180.00
2018-09-04T07:39:02.516Z,180.00
2018-09-04T07:40:02.535Z,188.00
2018-09-04T07:41:02.546Z,188.00
2018-09-04T07:42:02.653Z,188.00
2018-09-04T07:43:02.576Z,188.00
2018-09-04T07:44:02.597Z,192.00
2018-09-04T07:45:02.610Z,192.00
2018-09-04T07:46:02.621Z,196.00
2018-09-04T07:47:02.639Z,200.00
2018-09-04T07:48:02.657Z,200.00
2018-09-04T07:49:02.671Z,200.00
2018-09-04T07:50:02.686Z,204.00
2018-09-04T07:51:02.702Z,208.00
2018-09-04T07:52:02.720Z,208.00
2018-09-04T07:53:02.733Z,208.00
2018-09-04T07:54:02.748Z,212.00
2018-09-04T07:55:02.761Z,212.00
2018-09-04T07:56:02.781Z,220.00
2018-09-04T07:57:02.796Z,220.00
2018-09-04T07:58:02.809Z,220.00
2018-09-04T07:59:02.836Z,224.00
2018-09-04T08:00:02.842Z,228.00
2018-09-04T08:01:02.913Z,228.00
2018-09-04T08:02:02.870Z,232.00
2018-09-04T08:03:02.887Z,232.00
2018-09-04T08:04:02.902Z,236.00
2018-09-04T08:05:02.916Z,236.00
2018-09-04T08:06:02.933Z,240.00
2018-09-04T08:07:02.949Z,240.00
2018-09-04T08:08:02.964Z,244.00
2018-09-04T08:09:02.988Z,248.00
2018-09-04T08:10:03.025Z,252.00
2018-09-04T08:11:03.010Z,256.00
2018-09-04T08:12:03.027Z,256.00
2018-09-04T08:13:03.046Z,260.00
2018-09-04T08:14:03.056Z,264.00
2018-09-04T08:15:03.075Z,264.00
2018-09-04T08:16:03.091Z,268.00
2018-09-04T08:17:03.117Z,272.00
2018-09-04T08:18:03.121Z,276.00
2018-09-04T08:19:03.138Z,276.00
2018-09-04T08:20:03.153Z,280.00
2018-09-04T08:21:03.172Z,284.00
2018-09-04T08:22:03.185Z,288.00
2018-09-04T08:23:03.199Z,292.00
2018-09-04T08:24:03.217Z,292.00
2018-09-04T08:25:03.231Z,300.00
2018-09-04T08:26:03.293Z,300.00
2018-09-04T08:27:03.264Z,304.00
2018-09-04T08:28:03.282Z,304.00
2018-09-04T08:29:03.297Z,312.00
2018-09-04T08:30:03.311Z,316.00
2018-09-04T08:31:03.329Z,320.00
2018-09-04T08:32:03.343Z,324.00
2018-09-04T08:33:03.374Z,328.00
2018-09-04T08:34:03.375Z,332.00
2018-09-04T08:35:03.390Z,332.00
2018-09-04T08:36:03.409Z,336.00
2018-09-04T08:37:03.424Z,344.00
2018-09-04T08:38:03.438Z,348.00
2018-09-04T08:39:03.455Z,352.00
2018-09-04T08:40:03.534Z,356.00
2018-09-04T08:41:03.488Z,360.00
2018-09-04T08:42:03.503Z,360.00
2018-09-04T08:43:03.523Z,364.00
2018-09-04T08:44:03.535Z,368.00
2018-09-04T08:45:03.553Z,372.00
2018-09-04T08:46:03.568Z,376.00
2018-09-04T08:47:03.614Z,380.00
2018-09-04T08:48:03.601Z,384.00
2018-09-04T08:49:03.618Z,384.00
2018-09-04T08:50:03.634Z,388.00
2018-09-04T08:51:03.650Z,396.00
2018-09-04T08:52:03.666Z,400.00
2018-09-04T08:53:03.682Z,400.00
2018-09-04T08:54:03.697Z,404.00
2018-09-04T08:55:03.716Z,412.00
2018-09-04T08:56:03.733Z,416.00
2018-09-04T08:57:03.749Z,424.00
2018-09-04T08:58:03.765Z,428.00
2018-09-04T08:59:03.781Z,432.00
2018-09-04T09:00:03.796Z,436.00
2018-09-04T09:01:03.815Z,444.00
2018-09-04T09:02:03.830Z,448.00
2018-09-04T09:03:03.844Z,456.00
2018-09-04T09:04:03.862Z,460.00
2018-09-04T09:05:03.879Z,464.00
2018-09-04T09:06:03.908Z,468.00
2018-09-04T09:07:03.912Z,476.00
2018-09-04T09:08:03.928Z,484.00
2018-09-04T09:09:03.951Z,492.00
2018-09-04T09:10:03.985Z,500.00
2018-09-04T09:11:03.978Z,504.00
2018-09-04T09:12:03.997Z,508.00
2018-09-04T09:13:04.013Z,516.00
2018-09-04T09:14:04.030Z,520.00
2018-09-04T09:15:04.045Z,532.00
2018-09-04T09:16:04.063Z,540.00
2018-09-04T09:17:04.083Z,548.00
2018-09-04T09:18:04.109Z,556.00
2018-09-04T09:19:04.116Z,568.00
2018-09-04T09:20:04.131Z,576.00
2018-09-04T09:21:04.149Z,584.00
2018-09-04T09:22:04.169Z,596.00
2018-09-04T09:23:04.184Z,604.00
2018-09-04T09:24:04.202Z,616.00
2018-09-04T09:25:04.219Z,628.00
2018-09-04T09:26:04.235Z,640.00
2018-09-04T09:27:04.252Z,648.00
2018-09-04T09:28:04.271Z,656.00
2018-09-04T09:29:04.290Z,664.00
2018-09-04T09:30:04.304Z,680.00
2018-09-04T09:31:04.322Z,688.00
2018-09-04T09:32:04.338Z,696.00
2018-09-04T09:33:04.358Z,708.00
2018-09-04T09:34:04.373Z,720.00
2018-09-04T09:35:04.438Z,732.00
2018-09-04T09:36:04.406Z,740.00
2018-09-04T09:37:04.515Z,756.00
2018-09-04T09:38:04.443Z,764.00
2018-09-04T09:39:04.458Z,776.00
2018-09-04T09:40:04.476Z,788.00
2018-09-04T09:41:04.494Z,800.00
2018-09-04T09:42:04.512Z,808.00
2018-09-04T09:43:04.533Z,820.00
2018-09-04T09:44:04.546Z,832.00
2018-09-04T09:45:04.563Z,844.00
2018-09-04T09:46:04.579Z,856.00
2018-09-04T09:47:04.596Z,864.00
2018-09-04T09:48:04.616Z,876.00
2018-09-04T09:49:04.634Z,888.00
2018-09-04T09:50:04.649Z,900.00
2018-09-04T09:51:04.668Z,908.00
2018-09-04T09:52:04.685Z,920.00
2018-09-04T09:53:04.726Z,924.00
2018-09-04T09:54:04.793Z,940.00
2018-09-04T09:55:04.744Z,952.00
2018-09-04T09:56:04.807Z,960.00
2018-09-04T09:57:04.775Z,972.00
2018-09-04T09:58:04.791Z,980.00
2018-09-04T09:59:04.812Z,988.00
2018-09-04T10:00:04.883Z,1008.00
2018-09-04T10:01:04.848Z,1016.00
2018-09-04T10:02:04.867Z,1024.00
2018-09-04T10:03:04.883Z,1036.00
2018-09-04T10:04:04.991Z,1048.00
2018-09-04T10:05:04.916Z,1056.00
2018-09-04T10:06:04.935Z,1064.00
2018-09-04T10:07:04.955Z,1072.00
2018-09-04T10:08:04.995Z,1080.00
2018-09-04T10:09:04.991Z,1088.00
2018-09-04T10:10:05.011Z,1096.00
2018-09-04T10:11:05.080Z,1104.00
2018-09-04T10:12:05.047Z,1112.00
2018-09-04T10:13:05.064Z,1120.00
2018-09-04T10:14:05.083Z,1128.00
2018-09-04T10:15:05.105Z,1140.00
2018-09-04T10:16:05.120Z,1148.00
2018-09-04T10:17:05.138Z,1156.00
2018-09-04T10:18:05.156Z,1164.00
2018-09-04T10:19:05.176Z,1172.00
2018-09-04T10:20:05.194Z,1180.00
2018-09-04T10:21:05.211Z,1184.00
2018-09-04T10:22:05.230Z,1192.00
2018-09-04T10:23:05.249Z,1200.00
2018-09-04T10:24:05.268Z,1208.00
2018-09-04T10:25:05.287Z,1220.00
2018-09-04T10:26:05.304Z,1224.00
2018-09-04T10:27:05.323Z,1228.00
2018-09-04T10:28:05.341Z,1236.00
2018-09-04T10:29:05.359Z,1248.00
2018-09-04T10:30:05.383Z,1252.00
2018-09-04T10:31:05.397Z,1256.00
2018-09-04T10:32:05.415Z,1264.00
2018-09-04T10:33:05.433Z,1272.00
2018-09-04T10:34:05.453Z,1280.00
2018-09-04T10:35:05.471Z,1284.00
2018-09-04T10:36:05.543Z,1288.00
2018-09-04T10:37:05.511Z,1296.00
2018-09-04T10:38:05.528Z,1300.00
2018-09-04T10:39:05.549Z,1288.00
2018-09-04T10:40:05.567Z,1316.00
2018-09-04T10:41:05.595Z,1320.00
2018-09-04T10:42:05.635Z,1328.00
2018-09-04T10:43:05.623Z,1336.00
2018-09-04T10:44:05.643Z,1340.00
2018-09-04T10:45:05.664Z,1348.00
2018-09-04T10:46:05.685Z,1356.00
2018-09-04T10:47:05.701Z,1356.00
2018-09-04T10:48:05.723Z,1356.00
2018-09-04T10:49:05.741Z,1352.00
2018-09-04T10:50:05.760Z,1324.00
2018-09-04T10:51:05.781Z,1264.00
2018-09-04T10:52:05.799Z,1368.00
2018-09-04T10:53:05.820Z,1352.00
2018-09-04T10:54:05.837Z,1372.00
2018-09-04T10:55:05.858Z,1344.00
2018-09-04T10:56:05.879Z,1372.00
2018-09-04T10:57:05.895Z,1412.00
2018-09-04T10:58:05.933Z,1416.00
2018-09-04T10:59:05.934Z,1420.00
2018-09-04T11:00:05.955Z,1428.00
2018-09-04T11:01:05.977Z,1432.00
2018-09-04T11:02:06.049Z,1436.00
2018-09-04T11:03:06.015Z,1432.00
2018-09-04T11:04:06.032Z,1444.00
2018-09-04T11:05:06.056Z,1444.00
2018-09-04T11:06:06.073Z,1452.00
2018-09-04T11:07:06.093Z,1456.00
2018-09-04T11:08:06.114Z,1460.00
2018-09-04T11:09:06.185Z,1472.00
2018-09-04T11:10:06.151Z,1464.00
2018-09-04T11:11:06.174Z,1452.00
2018-09-04T11:12:06.193Z,1448.00
2018-09-04T11:13:06.212Z,1460.00
2018-09-04T11:14:06.237Z,1468.00
2018-09-04T11:15:06.252Z,1480.00
2018-09-04T11:16:06.271Z,1488.00
2018-09-04T11:17:06.290Z,1492.00
2018-09-04T11:18:06.312Z,1496.00
2018-09-04T11:19:06.332Z,1500.00
2018-09-04T11:20:06.356Z,1504.00
2018-09-04T11:21:06.472Z,1508.00
2018-09-04T11:22:06.393Z,1512.00
2018-09-04T11:23:06.413Z,1516.00
2018-09-04T11:24:06.434Z,1520.00
2018-09-04T11:25:06.456Z,1528.00
2018-09-04T11:26:06.475Z,1528.00
2018-09-04T11:27:06.493Z,1532.00
2018-09-04T11:28:06.515Z,1532.00
2018-09-04T11:29:06.534Z,1536.00
2018-09-04T11:30:06.556Z,1540.00
2018-09-04T11:31:06.577Z,1540.00
2018-09-04T11:32:06.596Z,1544.00
2018-09-04T11:33:06.617Z,1548.00
2018-09-04T11:34:06.638Z,1548.00
2018-09-04T11:35:06.656Z,1552.00
2018-09-04T11:36:06.678Z,1552.00
2018-09-04T11:37:06.699Z,1556.00
2018-09-04T11:38:06.719Z,1552.00
2018-09-04T11:39:06.740Z,1560.00
2018-09-04T11:40:06.761Z,1560.00
2018-09-04T11:41:06.781Z,1560.00
2018-09-04T11:42:06.800Z,1564.00
2018-09-04T11:43:06.822Z,1568.00
2018-09-04T11:44:06.841Z,1568.00
2018-09-04T11:45:06.864Z,1572.00
2018-09-04T11:46:06.880Z,1572.00
2018-09-04T11:47:06.904Z,1572.00
2018-09-04T11:48:06.928Z,1576.00
2018-09-04T11:49:06.945Z,1576.00
2018-09-04T11:50:06.965Z,1576.00
2018-09-04T11:51:06.985Z,1576.00
2018-09-04T11:52:07.006Z,1580.00
2018-09-04T11:53:07.027Z,1584.00
2018-09-04T11:54:07.049Z,1584.00
2018-09-04T11:55:07.070Z,1584.00
2018-09-04T11:56:07.091Z,1584.00
2018-09-04T11:57:07.110Z,1584.00
2018-09-04T11:58:07.136Z,1588.00
2018-09-04T11:59:07.153Z,1592.00
2018-09-04T12:00:07.175Z,1592.00
2018-09-04T12:01:07.196Z,1592.00
2018-09-04T12:02:07.279Z,1592.00
2018-09-04T12:03:07.236Z,1592.00
2018-09-04T12:04:07.257Z,1592.00
2018-09-04T12:05:07.279Z,1592.00
2018-09-04T12:06:07.298Z,1588.00
2018-09-04T12:07:07.321Z,1588.00
2018-09-04T12:08:07.342Z,1592.00
2018-09-04T12:09:07.364Z,1592.00
2018-09-04T12:10:07.388Z,1592.00
2018-09-04T12:11:07.407Z,1596.00
2018-09-04T12:12:07.429Z,1592.00
2018-09-04T12:13:07.530Z,1596.00
2018-09-04T12:14:07.471Z,1596.00
2018-09-04T12:15:07.493Z,1596.00
2018-09-04T12:16:07.516Z,1600.00
2018-09-04T12:17:07.537Z,1600.00
2018-09-04T12:18:07.559Z,1600.00
2018-09-04T12:19:07.633Z,1604.00
2018-09-04T12:20:07.599Z,1600.00
2018-09-04T12:21:07.751Z,1600.00
2018-09-04T12:22:07.643Z,1596.00
2018-09-04T12:23:07.664Z,1580.00
2018-09-04T12:24:07.688Z,1600.00
2018-09-04T12:25:07.708Z,1600.00
2018-09-04T12:26:07.730Z,1600.00
2018-09-04T12:27:07.811Z,1600.00
2018-09-04T12:28:07.773Z,1600.00
2018-09-04T12:29:07.797Z,1592.00
2018-09-04T12:30:07.816Z,1600.00
2018-09-04T12:31:07.835Z,1596.00
2018-09-04T12:32:07.858Z,1600.00
2018-09-04T12:33:07.937Z,1596.00
2018-09-04T12:34:07.885Z,1596.00
2018-09-04T12:35:07.925Z,1588.00
2018-09-04T12:36:07.944Z,1592.00
2018-09-04T12:37:07.968Z,1596.00
2018-09-04T12:38:07.988Z,1592.00
2018-09-04T12:39:08.011Z,1592.00
2018-09-04T12:40:08.031Z,1592.00
2018-09-04T12:41:08.054Z,1596.00
2018-09-04T12:42:08.076Z,1596.00
2018-09-04T12:43:08.097Z,1600.00
2018-09-04T12:44:08.122Z,1596.00
2018-09-04T12:45:08.143Z,1596.00